Time;durP1;ratioP1;P1;durP2;ratioP2;P2;SDS_P1;SDS_P2;PMS_P1;PMS_P2;Temp;Humidity;BMP_temperature;BMP_pressure;BME280_temperature;BME280_humidity;BME280_pressure;Samples;Min_cycle;Max_cycle;Signal;HPM_P1;HPM_P2
2023/12/09 00:02:24;;;;;;;58.73;25.73;;;;;;;-0.65;91.71;101017.80;126246;1086;101962;-75
2023/12/09 00:04:53;;;;;;;53.50;24.00;;;;;;;-0.65;91.47;101017.80;126249;1086;104303;-75
2023/12/09 00:07:22;;;;;;;58.10;25.50;;;;;;;-0.66;91.51;101015.97;126272;1086;104219;-75
2023/12/09 00:09:50;;;;;;;62.73;28.53;;;;;;;-0.67;91.29;101014.16;126242;1086;104168;-76
2023/12/09 00:12:19;;;;;;;56.57;27.60;;;;;;;-0.68;91.66;101022.67;126328;1086;104632;-74
2023/12/09 00:14:48;;;;;;;69.87;30.13;;;;;;;-0.70;91.11;101009.66;126275;1086;101987;-75
2023/12/09 00:17:17;;;;;;;60.50;27.73;;;;;;;-0.71;91.55;101007.83;126221;1086;102216;-75
2023/12/09 00:19:45;;;;;;;60.87;28.63;;;;;;;-0.70;91.51;101013.88;126261;1086;104337;-76
2023/12/09 00:22:14;;;;;;;61.60;27.20;;;;;;;-0.70;91.39;101004.50;126244;1090;104229;-75
2023/12/09 00:24:43;;;;;;;63.73;28.40;;;;;;;-0.69;91.56;101011.44;126214;1086;104672;-75
2023/12/09 00:27:11;;;;;;;63.30;28.63;;;;;;;-0.69;91.61;101005.39;126251;1087;104183;-75
2023/12/09 00:29:40;;;;;;;57.33;26.77;;;;;;;-0.69;91.33;101005.39;126260;1086;101926;-75
2023/12/09 00:32:09;;;;;;;59.97;26.27;;;;;;;-0.69;90.98;101010.55;126213;1086;104194;-75
2023/12/09 00:34:38;;;;;;;64.87;28.80;;;;;;;-0.66;90.97;101006.56;126229;1086;102865;-75
2023/12/09 00:37:06;;;;;;;63.13;29.03;;;;;;;-0.65;91.24;101010.06;126205;1086;104322;-75
2023/12/09 00:39:35;;;;;;;67.47;29.37;;;;;;;-0.66;91.06;101005.66;126255;1086;101823;-75
2023/12/09 00:42:05;;;;;;;59.73;28.00;;;;;;;-0.65;91.43;101015.22;126210;1086;102080;-75
2023/12/09 00:44:34;;;;;;;65.17;29.43;;;;;;;-0.64;91.80;101010.20;126161;1086;104216;-75
2023/12/09 00:47:03;;;;;;;64.27;28.80;;;;;;;-0.63;91.35;101011.09;126149;1086;102094;-75
2023/12/09 00:49:31;;;;;;;63.87;29.63;;;;;;;-0.62;91.65;101010.33;126169;1086;104164;-75
2023/12/09 00:52:00;;;;;;;69.53;29.57;;;;;;;-0.62;90.98;101000.02;126237;1086;104235;-75
2023/12/09 00:54:29;;;;;;;64.33;28.40;;;;;;;-0.62;91.80;100997.45;126261;1086;104234;-75
2023/12/09 00:56:58;;;;;;;60.45;28.40;;;;;;;-0.63;90.95;101006.83;126211;1086;104175;-76
2023/12/09 00:59:26;;;;;;;70.50;31.60;;;;;;;-0.64;91.12;100997.31;126150;1086;104162;-75
2023/12/09 01:01:55;;;;;;;65.53;29.00;;;;;;;-0.61;91.22;101004.38;126230;1086;104220;-75
2023/12/09 01:04:24;;;;;;;67.57;29.03;;;;;;;-0.60;91.50;101001.05;126230;1086;104234;-75
2023/12/09 01:06:53;;;;;;;69.53;30.63;;;;;;;-0.59;91.48;101005.45;126263;1086;102612;-75
2023/12/09 01:09:21;;;;;;;68.90;29.60;;;;;;;-0.60;91.15;101004.52;126215;1086;104284;-75
2023/12/09 01:11:50;;;;;;;68.73;31.10;;;;;;;-0.59;91.67;101006.34;126194;1086;101819;-75
2023/12/09 01:14:19;;;;;;;68.13;31.17;;;;;;;-0.59;91.09;101005.45;126187;1086;101984;-75
2023/12/09 01:16:48;;;;;;;73.03;31.13;;;;;;;-0.62;91.53;101000.91;126160;1086;104219;-75
2023/12/09 01:19:16;;;;;;;71.65;31.55;;;;;;;-0.63;91.55;100993.94;126161;1086;104232;-75
2023/12/09 01:21:45;;;;;;;71.50;30.50;;;;;;;-0.61;91.67;100999.23;126137;1086;104158;-75
2023/12/09 01:24:14;;;;;;;61.23;28.30;;;;;;;-0.62;91.33;101000.02;126270;1086;104242;-75
2023/12/09 01:26:43;;;;;;;70.27;30.50;;;;;;;-0.65;91.30;100998.06;126232;1086;104245;-75
2023/12/09 01:29:11;;;;;;;72.50;29.83;;;;;;;-0.64;91.59;100998.95;126267;1086;102052;-75
2023/12/09 01:31:40;;;;;;;68.55;30.90;;;;;;;-0.66;91.74;101006.56;126136;1089;104312;-75
2023/12/09 01:34:09;;;;;;;68.00;31.03;;;;;;;-0.66;91.29;101001.41;126215;1086;104042;-75
2023/12/09 01:36:37;;;;;;;72.55;31.95;;;;;;;-0.66;91.32;100996.25;126174;1086;104280;-75
2023/12/09 01:39:06;;;;;;;72.83;31.23;;;;;;;-0.65;92.02;101002.33;126204;1088;104188;-75
2023/12/09 01:41:37;;;;;;;72.37;32.17;;;;;;;-0.64;91.41;101005.05;126211;1086;104267;-75
2023/12/09 01:44:06;;;;;;;75.97;32.23;;;;;;;-0.65;92.02;101013.53;126206;1089;101902;-75
2023/12/09 01:46:35;;;;;;;70.50;30.87;;;;;;;-0.64;91.65;101014.42;126301;1086;104226;-75
2023/12/09 01:49:04;;;;;;;70.30;30.37;;;;;;;-0.64;91.87;101014.42;126276;1086;103302;-75
2023/12/09 01:51:35;;;;;;;72.77;31.13;;;;;;;-0.65;91.65;101018.69;126399;1086;103573;-75
2023/12/09 01:54:04;;;;;;;75.33;32.30;;;;;;;-0.65;92.11;101010.95;126228;1086;104177;-75
2023/12/09 01:56:33;;;;;;;72.20;32.70;;;;;;;-0.63;91.03;101005.94;126233;1086;101922;-75
2023/12/09 01:59:02;;;;;;;72.53;31.27;;;;;;;-0.64;92.06;100998.95;126228;1086;104194;-75
2023/12/09 02:01:33;;;;;;;69.77;31.57;;;;;;;-0.65;92.25;100992.91;126289;1086;104203;-75
2023/12/09 02:04:03;;;;;;;69.00;30.63;;;;;;;-0.67;91.43;100998.69;126197;1086;102438;-75
2023/12/09 02:06:31;;;;;;;72.47;30.53;;;;;;;-0.68;92.02;101008.11;126233;1086;104235;-75
2023/12/09 02:09:00;;;;;;;68.67;30.50;;;;;;;-0.70;91.72;101007.08;126170;1086;104244;-75
2023/12/09 02:11:35;;;;;;;67.17;30.23;;;;;;;-0.70;91.75;101009.66;126311;1086;104207;-74
2023/12/09 02:14:07;;;;;;;;;;;;;;;-0.71;92.42;101006.94;126279;1086;101848;-75
2023/12/09 02:16:43;;;;;;;72.43;31.67;;;;;;;-0.69;92.34;101007.97;126216;1086;104251;-75
2023/12/09 02:19:14;;;;;;;69.43;30.70;;;;;;;-0.65;92.11;101007.48;126242;1086;102746;-75
2023/12/09 02:22:03;;;;;;;73.87;31.90;;;;;;;-0.65;91.55;101003.22;126194;1086;102988;-75
2023/12/09 02:24:32;;;;;;;71.57;30.60;;;;;;;-0.63;92.43;101001.67;126198;1086;104242;-75
2023/12/09 02:27:07;;;;;;;70.65;29.25;;;;;;;-0.63;91.72;101000.78;126247;1086;104261;-75
2023/12/09 02:29:45;;;;;;;71.03;31.70;;;;;;;-0.63;92.16;101000.78;126194;1086;104260;-75
2023/12/09 02:32:17;;;;;;;68.95;30.55;;;;;;;-0.63;92.26;100991.36;126234;1086;104168;-75
2023/12/09 02:34:47;;;;;;;78.43;31.57;;;;;;;-0.60;92.52;100994.20;126163;1086;104187;-75
2023/12/09 02:37:17;;;;;;;74.80;31.73;;;;;;;-0.59;92.45;100997.72;126128;1086;104156;-75
2023/12/09 02:39:46;;;;;;;70.10;31.03;;;;;;;-0.59;91.75;101001.19;126181;1086;104153;-75
2023/12/09 02:42:17;;;;;;;67.40;30.30;;;;;;;-0.61;91.94;101006.97;126262;1086;104162;-75
2023/12/09 02:44:47;;;;;;;70.23;30.70;;;;;;;-0.61;92.30;101009.54;126166;1086;104197;-75
2023/12/09 02:47:16;;;;;;;74.47;30.30;;;;;;;-0.59;92.40;101010.61;126144;1085;104255;-75
2023/12/09 02:49:45;;;;;;;74.03;31.40;;;;;;;-0.58;92.70;101003.00;126084;1086;102332;-75
2023/12/09 02:52:13;;;;;;;71.05;29.65;;;;;;;-0.57;92.05;101006.48;126125;1086;104231;-75
2023/12/09 02:54:42;;;;;;;67.90;29.40;;;;;;;-0.57;92.05;101001.32;126236;1086;104176;-75
2023/12/09 02:57:11;;;;;;;73.93;30.37;;;;;;;-0.57;92.19;100999.64;126174;1086;104196;-75
2023/12/09 02:59:40;;;;;;;76.07;32.40;;;;;;;-0.58;92.41;101000.43;126232;1086;101846;-75
2023/12/09 03:02:08;;;;;;;76.47;31.40;;;;;;;-0.56;92.42;100997.98;126121;1086;102389;-75
2023/12/09 03:04:39;;;;;;;72.80;32.47;;;;;;;-0.55;92.69;100992.03;126142;1084;104198;-75
2023/12/09 03:07:07;;;;;;;68.80;29.80;;;;;;;-0.55;92.59;101002.34;126187;1086;104675;-74
2023/12/09 03:09:36;;;;;;;70.60;30.80;;;;;;;-0.58;92.41;100995.27;126100;1090;104210;-75
2023/12/09 03:12:06;;;;;;;76.40;30.87;;;;;;;-0.60;92.55;101001.94;126172;1089;104290;-74
2023/12/09 03:14:35;;;;;;;71.50;30.80;;;;;;;-0.62;92.02;100997.45;126193;1086;104222;-75
2023/12/09 03:17:05;;;;;;;79.17;32.03;;;;;;;-0.63;92.64;100998.20;126169;1086;102006;-75
2023/12/09 03:19:33;;;;;;;71.90;31.60;;;;;;;-0.64;92.47;100992.16;126077;1089;101931;-75
2023/12/09 03:22:03;;;;;;;71.30;30.70;;;;;;;-0.62;92.64;100988.03;126127;1089;104152;-74
2023/12/09 03:24:32;;;;;;;72.97;31.70;;;;;;;-0.62;92.39;100989.71;126185;1086;102056;-75
2023/12/09 03:27:00;;;;;;;73.33;31.27;;;;;;;-0.63;92.23;100990.47;126065;1086;104172;-75
2023/12/09 03:29:29;;;;;;;68.80;28.10;;;;;;;-0.62;92.58;100997.45;126174;1086;102670;-74
2023/12/09 03:31:58;;;;;;;70.80;30.07;;;;;;;-0.64;92.22;100991.23;126119;1086;101875;-75
2023/12/09 03:34:27;;;;;;;67.03;29.27;;;;;;;-0.65;93.11;100994.59;126183;1089;101870;-75
2023/12/09 03:36:55;;;;;;;67.30;28.53;;;;;;;-0.65;93.16;100998.06;126134;1086;104210;-75
2023/12/09 03:39:24;;;;;;;69.40;28.83;;;;;;;-0.63;92.65;100990.47;126066;1086;102546;-75
2023/12/09 03:41:53;;;;;;;68.60;29.27;;;;;;;-0.63;92.50;100991.36;126158;1086;104152;-74
2023/12/09 03:44:21;;;;;;;71.97;31.10;;;;;;;-0.65;92.78;100985.18;126117;1086;104066;-75
2023/12/09 03:46:50;;;;;;;65.93;28.43;;;;;;;-0.65;92.95;100985.18;126230;1086;104191;-75
2023/12/09 03:49:19;;;;;;;64.57;27.53;;;;;;;-0.63;92.82;100993.94;126158;1089;104146;-75
2023/12/09 03:51:48;;;;;;;64.97;28.30;;;;;;;-0.63;92.67;100999.09;126144;1086;104274;-75
2023/12/09 03:54:16;;;;;;;67.10;30.43;;;;;;;-0.61;92.87;101000.16;126150;1089;104213;-75
2023/12/09 03:56:45;;;;;;;66.80;28.57;;;;;;;-0.59;92.83;101006.34;126134;1086;102417;-75
2023/12/09 03:59:14;;;;;;;66.30;28.03;;;;;;;-0.58;92.76;101002.08;126133;1086;102258;-75
2023/12/09 04:01:49;;;;;;;64.27;26.33;;;;;;;-0.58;93.19;100999.50;126186;1086;117777;-74
2023/12/09 04:04:17;;;;;;;64.17;26.57;;;;;;;-0.59;92.50;101000.30;126062;1089;104249;-75
2023/12/09 04:06:46;;;;;;;60.07;25.70;;;;;;;-0.60;92.92;100999.36;126111;1086;104162;-75
2023/12/09 04:09:16;;;;;;;61.50;27.17;;;;;;;-0.59;92.77;101002.87;126101;1086;104171;-75
2023/12/09 04:11:45;;;;;;;59.20;25.50;;;;;;;-0.59;93.30;100993.45;126121;1086;104235;-75
2023/12/09 04:14:13;;;;;;;66.30;27.80;;;;;;;-0.58;92.53;100996.92;126171;1086;102048;-74
2023/12/09 04:16:43;;;;;;;70.87;29.20;;;;;;;-0.59;93.15;100992.56;126144;1086;101856;-74
2023/12/09 04:19:12;;;;;;;72.67;30.80;;;;;;;-0.61;93.30;100997.58;126160;1086;104162;-74
2023/12/09 04:21:41;;;;;;;71.70;28.47;;;;;;;-0.61;93.29;100992.42;126114;1086;104360;-74
2023/12/09 04:24:10;;;;;;;66.60;27.70;;;;;;;-0.62;93.08;100993.18;126197;1086;104165;-74
2023/12/09 04:26:39;;;;;;;71.53;28.37;;;;;;;-0.64;93.56;100988.65;126284;1086;104319;-74
2023/12/09 04:29:08;;;;;;;67.63;28.07;;;;;;;-0.65;93.12;100990.34;126203;1086;102363;-74
2023/12/09 04:31:37;;;;;;;67.90;25.85;;;;;;;-0.69;93.52;100980.51;126169;1086;101861;-74
2023/12/09 04:34:06;;;;;;;70.67;26.20;;;;;;;-0.69;92.81;100982.20;126201;1086;102319;-74
2023/12/09 04:36:34;;;;;;;66.90;27.03;;;;;;;-0.72;93.73;100987.97;126205;1086;104156;-74
2023/12/09 04:39:03;;;;;;;64.57;26.70;;;;;;;-0.73;93.98;100981.92;126224;1086;101966;-74
2023/12/09 04:41:32;;;;;;;69.53;26.53;;;;;;;-0.73;93.42;100981.92;126100;1086;104206;-74
2023/12/09 04:44:01;;;;;;;67.50;26.83;;;;;;;-0.74;93.45;100979.21;126131;1086;102076;-74
2023/12/09 04:46:31;;;;;;;67.93;26.07;;;;;;;-0.76;94.43;100983.34;126182;1089;104162;-74
2023/12/09 04:49:00;;;;;;;68.13;25.40;;;;;;;-0.77;94.15;100977.26;126176;1086;104289;-74
2023/12/09 04:51:28;;;;;;;63.70;26.05;;;;;;;-0.77;93.43;100982.41;126079;1086;104276;-74
2023/12/09 04:53:57;;;;;;;68.40;26.53;;;;;;;-0.77;93.91;100979.83;126108;1089;104239;-74
2023/12/09 04:56:26;;;;;;;74.37;28.27;;;;;;;-0.73;93.22;100986.19;126076;1086;104162;-74
2023/12/09 04:58:55;;;;;;;78.40;29.50;;;;;;;-0.74;94.09;100977.53;126097;1086;104227;-75
2023/12/09 05:01:23;;;;;;;73.30;28.77;;;;;;;-0.71;93.63;100981.17;126117;1086;104159;-75
2023/12/09 05:03:52;;;;;;;82.33;29.03;;;;;;;-0.71;94.10;100979.48;126130;1086;104261;-74
2023/12/09 05:06:21;;;;;;;71.63;26.83;;;;;;;-0.73;93.46;100987.08;126159;1086;104194;-74
2023/12/09 05:08:50;;;;;;;78.80;30.73;;;;;;;-0.74;93.97;100987.84;126108;1086;104206;-75
2023/12/09 05:11:19;;;;;;;73.47;28.03;;;;;;;-0.71;93.98;100991.48;126092;1086;104165;-75
2023/12/09 05:13:47;;;;;;;73.73;27.77;;;;;;;-0.71;94.11;101002.68;126100;1086;101826;-75
2023/12/09 05:16:16;;;;;;;75.53;27.90;;;;;;;-0.69;94.21;101000.23;126107;1086;104152;-74
2023/12/09 05:18:45;;;;;;;70.10;28.10;;;;;;;-0.68;94.00;101005.53;126158;1086;104185;-74
2023/12/09 05:21:14;;;;;;;70.70;25.27;;;;;;;-0.68;93.44;101020.98;126135;1086;102115;-74
2023/12/09 05:23:43;;;;;;;65.63;25.33;;;;;;;-0.68;94.08;101017.52;126047;1086;104261;-74
2023/12/09 05:26:22;;;;;;;76.33;26.63;;;;;;;-0.70;94.08;101019.03;126167;1086;104232;-75
2023/12/09 05:28:51;;;;;;;71.67;28.27;;;;;;;-0.69;93.97;101021.75;126078;1086;104437;-75
2023/12/09 05:31:20;;;;;;;72.93;27.13;;;;;;;-0.69;94.24;101023.44;126105;1086;103489;-74
2023/12/09 05:33:49;;;;;;;72.23;28.37;;;;;;;-0.70;93.83;101021.61;126087;1086;102102;-74
2023/12/09 05:36:18;;;;;;;69.90;27.07;;;;;;;-0.70;93.94;101026.77;126156;1086;102373;-75
2023/12/09 05:38:47;;;;;;;71.33;27.53;;;;;;;-0.69;94.18;101019.17;126104;1089;104322;-74
2023/12/09 05:41:16;;;;;;;65.80;25.40;;;;;;;-0.69;94.33;101024.33;126107;1086;104165;-75
2023/12/09 05:43:44;;;;;;;67.63;26.37;;;;;;;-0.69;93.97;101026.91;125993;1087;101912;-75
2023/12/09 05:46:19;;;;;;;72.33;24.80;;;;;;;-0.70;94.64;101032.84;126117;1086;101854;-74
2023/12/09 05:48:48;;;;;;;68.97;26.17;;;;;;;-0.70;94.56;101032.84;126152;1089;104219;-74
2023/12/09 05:51:17;;;;;;;69.90;27.93;;;;;;;-0.69;94.58;101041.47;126084;1089;104136;-74
2023/12/09 05:53:46;;;;;;;67.43;25.63;;;;;;;-0.68;94.33;101035.56;126130;1086;118631;-74
2023/12/09 05:56:15;;;;;;;64.40;24.97;;;;;;;-0.67;93.64;101039.92;126058;1089;104220;-74
2023/12/09 05:58:44;;;;;;;69.13;24.73;;;;;;;-0.67;94.30;101047.66;126064;1084;104176;-75
2023/12/09 06:01:13;;;;;;;68.23;25.97;;;;;;;-0.66;94.01;101049.48;126088;1086;104182;-74
2023/12/09 06:03:42;;;;;;;68.90;26.20;;;;;;;-0.65;94.74;101048.72;126084;1086;104191;-75
2023/12/09 06:06:11;;;;;;;74.17;27.03;;;;;;;-0.63;94.29;101047.17;126144;1086;101916;-74
2023/12/09 06:08:39;;;;;;;71.47;28.07;;;;;;;-0.63;93.87;101062.64;126131;1085;101909;-74
2023/12/09 06:11:08;;;;;;;76.57;29.20;;;;;;;-0.62;94.36;101056.73;126234;1086;101952;-74
2023/12/09 06:13:37;;;;;;;78.67;26.97;;;;;;;-0.61;93.69;101050.78;126114;1086;104020;-74
2023/12/09 06:16:07;;;;;;;69.33;26.87;;;;;;;-0.59;94.58;101077.63;126170;1086;101964;-74
2023/12/09 06:18:38;;;;;;;72.33;26.70;;;;;;;-0.59;94.35;101060.47;126149;1086;104155;-74
2023/12/09 06:21:07;;;;;;;63.73;23.73;;;;;;;-0.61;94.16;101069.75;126242;1086;104261;-75
2023/12/09 06:23:37;;;;;;;71.00;26.67;;;;;;;-0.59;94.59;101075.05;126212;1086;101829;-74
2023/12/09 06:26:06;;;;;;;68.03;25.33;;;;;;;-0.59;94.20;101082.78;126232;1086;104204;-73
2023/12/09 06:28:36;;;;;;;72.93;26.53;;;;;;;-0.57;94.71;101068.34;126178;1086;102377;-74
2023/12/09 06:31:05;;;;;;;63.83;25.80;;;;;;;-0.57;94.49;101076.08;126226;1086;101906;-74
2023/12/09 06:33:34;;;;;;;80.27;28.00;;;;;;;-0.55;93.97;101082.27;126113;1086;104200;-74
2023/12/09 06:36:04;;;;;;;68.90;25.60;;;;;;;-0.55;94.25;101079.69;126176;1086;104062;-74
2023/12/09 06:38:34;;;;;;;73.03;25.27;;;;;;;-0.52;93.86;101079.06;126247;1086;101878;-74
2023/12/09 06:41:03;;;;;;;66.87;25.30;;;;;;;-0.50;93.94;101080.99;126144;1086;101918;-74
2023/12/09 06:43:32;;;;;;;76.20;27.40;;;;;;;-0.48;94.08;101088.86;126109;1089;101866;-74
2023/12/09 06:46:01;;;;;;;74.03;27.03;;;;;;;-0.45;93.83;101077.17;126205;1086;104245;-74
2023/12/09 06:48:30;;;;;;;69.53;25.17;;;;;;;-0.41;94.49;101092.13;126085;1089;104629;-74
2023/12/09 06:50:58;;;;;;;76.07;26.73;;;;;;;-0.40;94.08;101086.21;126100;1086;104231;-74
2023/12/09 06:53:27;;;;;;;68.27;25.23;;;;;;;-0.38;94.77;101100.13;126112;1084;101890;-74
2023/12/09 06:55:56;;;;;;;67.87;25.43;;;;;;;-0.38;94.52;101100.13;126483;1086;104319;-74
2023/12/09 06:58:25;;;;;;;70.80;26.70;;;;;;;-0.34;94.05;101102.98;126490;1086;104302;-74
2023/12/09 07:00:54;;;;;;;70.87;26.10;;;;;;;-0.33;94.56;101116.02;126105;1086;104260;-74
2023/12/09 07:03:23;;;;;;;74.53;26.53;;;;;;;-0.29;94.52;101112.06;126495;1086;104076;-74
2023/12/09 07:05:52;;;;;;;72.07;25.10;;;;;;;-0.26;94.34;101112.33;126497;1086;101823;-75
2023/12/09 07:08:20;;;;;;;66.57;25.23;;;;;;;-0.22;93.79;101106.66;126086;1086;104245;-74
2023/12/09 07:10:49;;;;;;;64.40;24.67;;;;;;;-0.19;94.05;101110.43;126263;1086;104271;-74
2023/12/09 07:13:18;;;;;;;59.43;23.40;;;;;;;-0.15;93.93;101106.44;126191;1089;104360;-74
2023/12/09 07:15:47;;;;;;;64.53;24.33;;;;;;;-0.12;93.73;101106.70;126325;1086;104181;-74
2023/12/09 07:18:16;;;;;;;63.70;24.87;;;;;;;-0.09;94.36;101113.82;125927;1086;104200;-73
2023/12/09 07:20:44;;;;;;;56.13;21.60;;;;;;;-0.05;94.42;101102.98;126048;1086;104265;-74
2023/12/09 07:23:14;;;;;;;52.83;20.27;;;;;;;-0.01;93.98;101108.55;126045;1086;104306;-74
2023/12/09 07:25:43;;;;;;;60.97;22.10;;;;;;;-0.03;94.05;101107.52;126189;1086;104204;-74
2023/12/09 07:28:11;;;;;;;54.27;20.50;;;;;;;-0.03;93.58;101106.62;126092;1086;101881;-74
2023/12/09 07:30:40;;;;;;;57.80;21.07;;;;;;;-0.01;93.72;101110.23;126472;1086;101893;-74
2023/12/09 07:33:09;;;;;;;56.37;22.63;;;;;;;0.01;93.87;101108.67;126118;1086;104191;-74
2023/12/09 07:35:39;;;;;;;52.20;20.23;;;;;;;0.04;93.61;101108.05;126050;1086;101878;-74
2023/12/09 07:38:08;;;;;;;57.90;21.77;;;;;;;0.07;93.64;101110.91;126463;1086;101928;-74
2023/12/09 07:40:37;;;;;;;49.67;19.50;;;;;;;0.10;93.62;101113.75;126512;1086;104263;-74
2023/12/09 07:43:06;;;;;;;54.60;19.47;;;;;;;0.10;93.54;101108.59;126446;1086;102015;-74
2023/12/09 07:45:35;;;;;;;50.93;20.23;;;;;;;0.13;93.43;101107.17;126432;1086;104622;-74
2023/12/09 07:48:05;;;;;;;52.13;20.37;;;;;;;0.16;93.70;101104.85;126505;1086;104209;-74
2023/12/09 07:50:35;;;;;;;52.70;20.95;;;;;;;0.22;93.43;101107.08;126458;1086;101951;-74
2023/12/09 07:53:04;;;;;;;50.70;19.35;;;;;;;0.24;92.95;101117.53;126482;1086;104194;-74
2023/12/09 07:55:33;;;;;;;46.60;18.30;;;;;;;0.23;93.43;101115.71;126475;1086;104191;-74
2023/12/09 07:58:01;;;;;;;51.33;18.67;;;;;;;0.21;93.05;101109.52;126446;1086;104397;-74
2023/12/09 08:00:31;;;;;;;44.10;16.90;;;;;;;0.22;92.96;101113.89;126445;1086;102112;-74
2023/12/09 08:03:04;;;;;;;45.30;18.07;;;;;;;0.22;93.12;101101.91;126481;1086;104264;-74
2023/12/09 08:05:34;;;;;;;43.97;18.57;;;;;;;0.25;92.76;101102.17;126161;1086;104162;-74
2023/12/09 08:08:04;;;;;;;50.17;19.50;;;;;;;0.28;93.15;101104.09;126453;1086;104430;-74
2023/12/09 08:10:32;;;;;;;46.80;19.00;;;;;;;0.28;92.83;101104.09;126474;1086;104283;-74
2023/12/09 08:13:03;;;;;;;48.43;18.93;;;;;;;0.30;93.47;101102.58;126476;1086;104248;-74
2023/12/09 08:15:32;;;;;;;51.87;21.30;;;;;;;0.28;92.85;101097.28;126121;1086;104265;-75
2023/12/09 08:18:00;;;;;;;49.60;19.83;;;;;;;0.32;92.93;101095.86;126424;1086;104256;-74
2023/12/09 08:20:29;;;;;;;51.70;20.80;;;;;;;0.37;92.74;101097.14;126449;1086;104187;-73
2023/12/09 08:22:58;;;;;;;52.40;20.95;;;;;;;0.40;93.19;101101.68;126472;1086;101973;-74
2023/12/09 08:25:27;;;;;;;49.87;21.07;;;;;;;0.40;92.77;101099.99;126114;1086;104238;-74
2023/12/09 08:27:57;;;;;;;51.50;20.75;;;;;;;0.40;93.02;101094.83;126429;1086;101895;-74
2023/12/09 08:30:26;;;;;;;49.93;19.80;;;;;;;0.41;92.79;101096.64;126438;1086;102223;-74
2023/12/09 08:32:55;;;;;;;51.17;20.63;;;;;;;0.40;92.36;101096.52;126452;1086;102177;-74
2023/12/09 08:35:24;;;;;;;48.13;20.10;;;;;;;0.41;92.55;101085.42;126499;1085;104293;-74
2023/12/09 08:37:53;;;;;;;44.80;19.00;;;;;;;0.40;92.12;101074.17;126520;1086;101884;-74
2023/12/09 08:40:22;;;;;;;44.27;17.33;;;;;;;0.40;92.16;101076.75;126164;1086;101960;-74
2023/12/09 08:42:50;;;;;;;45.00;17.87;;;;;;;0.45;92.50;101066.81;126483;1086;104266;-74
2023/12/09 08:45:19;;;;;;;44.83;18.57;;;;;;;0.53;92.74;101076.11;126425;1086;102286;-74
2023/12/09 08:47:48;;;;;;;47.50;19.90;;;;;;;0.57;92.76;101072.13;126526;1086;104394;-74
2023/12/09 08:50:17;;;;;;;43.13;18.20;;;;;;;0.57;91.73;101077.30;126527;1086;102226;-74
2023/12/09 08:52:45;;;;;;;45.83;18.07;;;;;;;0.56;91.86;101070.31;126524;1086;104159;-74
2023/12/09 08:55:15;;;;;;;44.80;18.67;;;;;;;0.56;92.31;101060.87;126463;1086;101900;-74
2023/12/09 08:57:45;;;;;;;41.53;17.00;;;;;;;0.61;91.48;101072.52;126519;1086;104207;-74
2023/12/09 09:00:19;;;;;;;41.67;16.50;;;;;;;0.60;91.96;101069.81;126274;1086;104162;-74
2023/12/09 09:02:47;;;;;;;38.15;17.10;;;;;;;0.54;91.99;101068.49;127778;1086;101614;-74
2023/12/09 09:05:16;;;;;;;43.70;17.97;;;;;;;0.51;92.05;101065.69;126459;1086;104298;-75
2023/12/09 09:07:45;;;;;;;43.13;16.53;;;;;;;0.50;91.69;101066.45;126391;1086;104309;-74
2023/12/09 09:10:14;;;;;;;39.00;16.17;;;;;;;0.48;91.63;101064.50;126523;1086;104149;-74
2023/12/09 09:12:43;;;;;;;37.40;16.57;;;;;;;0.44;91.37;101055.59;126461;1086;101934;-74
2023/12/09 09:15:12;;;;;;;37.03;16.43;;;;;;;0.46;91.62;101053.14;126486;1086;104212;-74
2023/12/09 09:17:41;;;;;;;39.73;17.87;;;;;;;0.45;91.56;101051.33;126368;1086;104177;-74
2023/12/09 09:20:11;;;;;;;42.30;19.17;;;;;;;0.42;91.41;101046.83;126563;1086;102714;-74
2023/12/09 09:22:41;;;;;;;42.53;19.73;;;;;;;0.41;91.34;101032.09;126457;1086;104170;-74
2023/12/09 09:25:10;;;;;;;42.05;19.65;;;;;;;0.43;91.37;101032.23;126098;1086;104210;-74
2023/12/09 09:27:39;;;;;;;37.77;17.40;;;;;;;0.43;91.50;101024.48;126384;1086;102398;-75
2023/12/09 09:30:09;;;;;;;40.40;18.13;;;;;;;0.42;91.13;101031.34;126481;1086;102248;-74
2023/12/09 09:32:38;;;;;;;37.27;17.03;;;;;;;0.50;91.55;101012.22;126537;1086;104189;-74
2023/12/09 09:35:09;;;;;;;34.40;15.23;;;;;;;0.59;90.94;101018.92;126528;1086;104319;-74
2023/12/09 09:37:37;;;;;;;34.13;15.27;;;;;;;0.59;91.24;101008.59;126489;1086;104220;-74
2023/12/09 09:40:11;;;;;;;31.47;13.20;;;;;;;0.64;90.93;101003.05;126402;1086;101835;-74
2023/12/09 09:42:48;;;;;;;30.17;13.13;;;;;;;0.69;90.72;100991.41;126509;1086;104156;-74
2023/12/09 09:45:22;;;;;;;32.70;13.27;;;;;;;0.74;90.29;100989.20;126477;1086;104267;-74
2023/12/09 09:47:53;;;;;;;31.17;13.80;;;;;;;0.77;90.54;100988.56;126536;1086;101803;-74
2023/12/09 09:50:22;;;;;;;29.43;13.33;;;;;;;0.84;91.08;100983.10;126078;1086;102054;-74
2023/12/09 09:52:52;;;;;;;30.87;13.53;;;;;;;0.87;90.25;100980.77;126491;1086;104046;-74
2023/12/09 09:55:23;;;;;;;28.23;12.80;;;;;;;0.89;90.26;100976.66;126145;1086;104181;-74
2023/12/09 09:57:52;;;;;;;30.63;13.33;;;;;;;0.88;90.12;100972.25;126282;1086;104276;-74
2023/12/09 10:00:22;;;;;;;32.77;13.83;;;;;;;0.94;90.10;100974.45;126495;1086;104203;-74
2023/12/09 10:02:51;;;;;;;31.30;13.47;;;;;;;0.95;90.24;100983.98;126417;1086;104169;-74
2023/12/09 10:05:20;;;;;;;30.13;13.63;;;;;;;0.97;90.04;100974.70;126441;1086;104055;-74
2023/12/09 10:07:49;;;;;;;33.13;14.40;;;;;;;1.02;90.32;100975.97;126535;1086;104159;-74
2023/12/09 10:10:18;;;;;;;32.40;13.97;;;;;;;0.98;89.42;100982.58;126458;1086;104103;-74
2023/12/09 10:12:47;;;;;;;33.10;14.67;;;;;;;0.95;88.70;100973.65;126457;1086;104165;-74
2023/12/09 10:15:15;;;;;;;34.07;14.73;;;;;;;0.87;88.71;100965.27;126524;1086;104167;-74
2023/12/09 10:17:44;;;;;;;33.87;14.03;;;;;;;0.90;89.54;100973.27;126408;1086;104197;-74
2023/12/09 10:20:15;;;;;;;36.33;14.80;;;;;;;0.89;89.27;100971.48;126531;1086;104331;-74
2023/12/09 10:22:46;;;;;;;36.07;15.97;;;;;;;0.91;89.85;100969.92;126125;1086;104206;-74
2023/12/09 10:25:22;;;;;;;32.40;14.83;;;;;;;0.88;89.44;100969.67;126509;1086;104164;-74
2023/12/09 10:27:50;;;;;;;36.73;15.40;;;;;;;0.93;89.54;100965.77;126431;1086;101957;-74
2023/12/09 10:30:19;;;;;;;37.73;15.77;;;;;;;0.96;89.96;100963.44;126535;1086;104334;-75
2023/12/09 10:32:49;;;;;;;41.97;16.80;;;;;;;0.91;89.55;100953.53;126508;1086;104268;-73
2023/12/09 10:35:18;;;;;;;42.87;18.33;;;;;;;0.85;89.73;100952.22;126466;1086;104237;-74
2023/12/09 10:37:49;;;;;;;39.93;18.23;;;;;;;0.75;89.08;100959.09;126163;1086;104197;-73
2023/12/09 10:40:19;;;;;;;49.40;19.03;;;;;;;0.69;89.54;100960.41;126494;1086;104310;-74
2023/12/09 10:42:48;;;;;;;49.07;21.00;;;;;;;0.69;89.90;100957.83;126466;1086;104068;-75
2023/12/09 10:45:17;;;;;;;49.20;20.83;;;;;;;0.69;89.89;100960.41;126312;1086;102110;-75
2023/12/09 10:47:47;;;;;;;49.40;20.20;;;;;;;0.66;89.93;100959.26;126098;1089;104216;-75
2023/12/09 10:50:16;;;;;;;47.63;19.30;;;;;;;0.60;89.53;100957.06;126467;1086;104165;-75
2023/12/09 10:52:44;;;;;;;47.87;20.10;;;;;;;0.57;89.47;100956.81;126060;1089;104282;-75
2023/12/09 10:55:14;;;;;;;49.27;21.10;;;;;;;0.54;89.80;100953.97;126475;1086;102113;-75
2023/12/09 10:57:43;;;;;;;53.00;21.70;;;;;;;0.52;89.94;100945.20;126074;1086;101882;-75
2023/12/09 11:00:15;;;;;;;52.50;20.00;;;;;;;0.54;90.02;100944.53;126106;1086;101958;-75
2023/12/09 11:02:46;;;;;;;54.25;20.90;;;;;;;0.52;89.84;100942.63;126334;1086;104191;-74
2023/12/09 11:05:15;;;;;;;47.43;19.57;;;;;;;0.49;89.83;100945.84;126559;1086;104190;-75
2023/12/09 11:07:46;;;;;;;51.03;20.50;;;;;;;0.49;89.92;100952.70;126505;1086;104213;-75